Time;durP1;ratioP1;P1;durP2;ratioP2;P2;SDS_P1;SDS_P2;PMS_P1;PMS_P2;Temp;Humidity;BMP_temperature;BMP_pressure;BME280_temperature;BME280_humidity;BME280_pressure;Samples;Min_cycle;Max_cycle;Signal;HPM_P1;HPM_P2
2022/04/08 00:01:53;;;;;;;;;;;21.40;34.10;;;;;;498559;239;1175;-39
2022/04/08 00:03:55;;;;;;;;;;;21.30;34.10;;;;;;498896;239;1027;-39
2022/04/08 00:05:57;;;;;;;;;;;21.40;34.10;;;;;;498590;239;1163;-39
2022/04/08 00:07:57;;;;;;;;;;;21.30;34.10;;;;;;498858;239;2389;-39
2022/04/08 00:09:59;;;;;;;;;;;21.40;34.20;;;;;;498449;239;1064;-39
2022/04/08 00:12:00;;;;;;;;;;;21.40;34.20;;;;;;498527;239;2114;-39
2022/04/08 00:14:01;;;;;;;;;;;21.30;34.10;;;;;;498463;239;1141;-39
2022/04/08 00:16:03;;;;;;;;;;;21.40;34.20;;;;;;498365;236;1366;-39
2022/04/08 00:18:04;;;;;;;;;;;21.40;34.20;;;;;;498843;239;1117;-39
2022/04/08 00:20:06;;;;;;;;;;;21.40;34.20;;;;;;498927;239;1051;-39
2022/04/08 00:22:07;;;;;;;;;;;21.30;34.10;;;;;;498411;239;1161;-39
2022/04/08 00:24:08;;;;;;;;;;;21.40;34.20;;;;;;498942;239;1071;-39
2022/04/08 00:26:09;;;;;;;;;;;21.40;34.10;;;;;;498506;239;1336;-39
2022/04/08 00:28:11;;;;;;;;;;;21.40;34.20;;;;;;498930;239;1193;-39
2022/04/08 00:30:12;;;;;;;;;;;21.40;34.20;;;;;;498890;239;1153;-39
2022/04/08 00:32:13;;;;;;;;;;;21.30;34.20;;;;;;498859;239;2154;-39
2022/04/08 00:34:15;;;;;;;;;;;21.30;34.20;;;;;;498920;239;1067;-39
2022/04/08 00:36:16;;;;;;;;;;;21.40;34.20;;;;;;498646;239;1321;-39
2022/04/08 00:38:17;;;;;;;;;;;21.40;34.20;;;;;;498930;239;1088;-39
2022/04/08 00:40:19;;;;;;;;;;;21.30;34.20;;;;;;498911;239;1143;-39
2022/04/08 00:42:20;;;;;;;;;;;21.40;34.20;;;;;;498903;239;1161;-39
2022/04/08 00:44:21;;;;;;;;;;;21.40;34.20;;;;;;498458;239;1197;-39
2022/04/08 00:46:23;;;;;;;;;;;21.30;34.20;;;;;;498868;236;1370;-39
2022/04/08 00:48:24;;;;;;;;;;;21.40;34.30;;;;;;498592;239;1250;-39
2022/04/08 00:50:25;;;;;;;;;;;21.40;34.20;;;;;;498885;239;1041;-39
2022/04/08 00:52:27;;;;;;;;;;;21.40;34.20;;;;;;498421;239;2114;-39
2022/04/08 00:54:28;;;;;;;;;;;21.40;34.20;;;;;;498971;239;1035;-39
2022/04/08 00:56:29;;;;;;;;;;;21.40;34.20;;;;;;498882;239;1099;-39
2022/04/08 00:58:31;;;;;;;;;;;21.40;34.20;;;;;;498928;239;1040;-39
2022/04/08 01:00:32;;;;;;;;;;;21.40;34.20;;;;;;498892;239;1023;-39
2022/04/08 01:02:33;;;;;;;;;;;21.40;34.20;;;;;;498429;239;1179;-39
2022/04/08 01:04:34;;;;;;;;;;;21.30;34.20;;;;;;498438;239;1056;-39
2022/04/08 01:06:36;;;;;;;;;;;21.30;34.20;;;;;;498658;239;1200;-39
2022/04/08 01:08:37;;;;;;;;;;;21.40;34.20;;;;;;498941;239;1085;-39
2022/04/08 01:10:38;;;;;;;;;;;21.30;34.20;;;;;;498897;239;2121;-39
2022/04/08 01:12:40;;;;;;;;;;;21.30;34.20;;;;;;498904;239;1071;-39
2022/04/08 01:14:41;;;;;;;;;;;21.30;34.20;;;;;;498968;239;1019;-39
2022/04/08 01:16:42;;;;;;;;;;;21.40;34.30;;;;;;498843;239;1464;-39
2022/04/08 01:18:44;;;;;;;;;;;21.40;34.30;;;;;;498950;239;1119;-39
2022/04/08 01:20:45;;;;;;;;;;;21.40;34.20;;;;;;498896;239;1112;-39
2022/04/08 01:22:46;;;;;;;;;;;21.40;34.30;;;;;;498440;239;1243;-39
2022/04/08 01:24:48;;;;;;;;;;;21.40;34.30;;;;;;498910;239;1094;-39
2022/04/08 01:26:49;;;;;;;;;;;21.40;34.30;;;;;;498520;239;1184;-39
2022/04/08 01:28:50;;;;;;;;;;;21.40;34.30;;;;;;498891;239;1082;-39
2022/04/08 01:30:52;;;;;;;;;;;21.30;34.20;;;;;;498883;239;2129;-39
2022/04/08 01:32:53;;;;;;;;;;;21.40;34.30;;;;;;498413;239;1099;-39
2022/04/08 01:34:55;;;;;;;;;;;21.40;34.30;;;;;;498955;239;1107;-39
2022/04/08 01:36:56;;;;;;;;;;;21.40;34.30;;;;;;498466;236;1266;-39
2022/04/08 01:38:57;;;;;;;;;;;21.30;34.30;;;;;;498488;239;1067;-39
2022/04/08 01:40:58;;;;;;;;;;;21.30;34.20;;;;;;498901;239;1510;-39
2022/04/08 01:43:00;;;;;;;;;;;21.40;34.30;;;;;;498426;239;1223;-39
2022/04/08 01:45:01;;;;;;;;;;;21.30;34.40;;;;;;498966;239;1044;-39
2022/04/08 01:47:02;;;;;;;;;;;21.30;34.40;;;;;;498818;239;1216;-39
2022/04/08 01:49:04;;;;;;;;;;;21.30;34.40;;;;;;498942;239;1200;-39
2022/04/08 01:51:05;;;;;;;;;;;21.40;34.40;;;;;;498857;239;2196;-39
2022/04/08 01:53:06;;;;;;;;;;;21.40;34.40;;;;;;498489;239;1203;-39
2022/04/08 01:55:08;;;;;;;;;;;21.40;34.30;;;;;;498968;239;1066;-39
2022/04/08 01:57:09;;;;;;;;;;;21.40;34.30;;;;;;498882;239;1190;-39
2022/04/08 01:59:10;;;;;;;;;;;21.40;34.30;;;;;;498939;239;1088;-39
2022/04/08 02:01:12;;;;;;;;;;;21.40;34.30;;;;;;498668;239;1160;-39
2022/04/08 02:03:15;;;;;;;;;;;21.40;34.30;;;;;;498943;239;1060;-39
2022/04/08 02:05:14;;;;;;;;;;;21.40;34.40;;;;;;498326;239;2024;-39
2022/04/08 02:07:16;;;;;;;;;;;21.40;34.40;;;;;;498396;239;1574;-39
2022/04/08 02:09:18;;;;;;;;;;;21.40;34.30;;;;;;498950;239;1052;-39
2022/04/08 02:11:19;;;;;;;;;;;21.30;34.30;;;;;;498348;239;2273;-39
2022/04/08 02:13:20;;;;;;;;;;;21.40;34.30;;;;;;498899;239;1086;-39
2022/04/08 02:15:21;;;;;;;;;;;21.40;34.40;;;;;;498922;239;1358;-39
2022/04/08 02:17:25;;;;;;;;;;;21.40;34.30;;;;;;498793;239;1177;-39
2022/04/08 02:19:24;;;;;;;;;;;21.40;34.30;;;;;;498766;239;2234;-39
2022/04/08 02:21:25;;;;;;;;;;;21.30;34.30;;;;;;498882;239;1251;-39
2022/04/08 02:23:26;;;;;;;;;;;21.40;34.40;;;;;;498533;239;1594;-39
2022/04/08 02:25:28;;;;;;;;;;;21.30;34.40;;;;;;498931;239;1078;-39
2022/04/08 02:27:29;;;;;;;;;;;21.30;34.40;;;;;;498869;239;1151;-39
2022/04/08 02:29:30;;;;;;;;;;;21.40;34.40;;;;;;498936;239;1077;-39
2022/04/08 02:31:32;;;;;;;;;;;21.30;34.30;;;;;;498452;239;2114;-39
2022/04/08 02:33:33;;;;;;;;;;;21.30;34.30;;;;;;498905;239;1053;-39
2022/04/08 02:35:34;;;;;;;;;;;21.40;34.40;;;;;;498890;238;1272;-39
2022/04/08 02:37:36;;;;;;;;;;;21.30;34.40;;;;;;498348;239;1213;-39
2022/04/08 02:39:37;;;;;;;;;;;21.30;34.40;;;;;;498928;239;1010;-39
2022/04/08 02:41:41;;;;;;;;;;;21.30;34.40;;;;;;498800;239;1313;-39
2022/04/08 02:43:43;;;;;;;;;;;21.40;34.40;;;;;;498879;239;1080;-39
2022/04/08 02:45:44;;;;;;;;;;;21.30;34.40;;;;;;498843;239;1101;-39
2022/04/08 02:47:45;;;;;;;;;;;21.30;34.40;;;;;;498339;239;1158;-39
2022/04/08 02:49:47;;;;;;;;;;;21.40;34.40;;;;;;498938;239;1026;-39
2022/04/08 02:51:48;;;;;;;;;;;21.30;34.40;;;;;;498788;239;2109;-39
2022/04/08 02:53:49;;;;;;;;;;;21.30;34.40;;;;;;498579;239;1158;-39
2022/04/08 02:55:50;;;;;;;;;;;21.40;34.40;;;;;;498669;239;1190;-39
2022/04/08 02:57:52;;;;;;;;;;;21.40;34.40;;;;;;498872;239;1164;-39
2022/04/08 02:59:53;;;;;;;;;;;21.40;34.40;;;;;;498902;239;1072;-39
2022/04/08 03:01:55;;;;;;;;;;;21.40;34.40;;;;;;498284;239;1140;-39
2022/04/08 03:03:56;;;;;;;;;;;21.30;34.40;;;;;;498733;239;2157;-39
2022/04/08 03:05:57;;;;;;;;;;;21.40;34.40;;;;;;498466;239;1250;-39
2022/04/08 03:07:58;;;;;;;;;;;21.40;34.40;;;;;;498734;239;1201;-39
2022/04/08 03:10:00;;;;;;;;;;;21.40;34.50;;;;;;498913;239;1047;-39
2022/04/08 03:12:01;;;;;;;;;;;21.40;34.40;;;;;;498801;239;2248;-39
2022/04/08 03:14:04;;;;;;;;;;;21.40;34.40;;;;;;498906;239;1071;-39
2022/04/08 03:16:04;;;;;;;;;;;21.40;34.40;;;;;;498789;239;2454;-39
2022/04/08 03:18:05;;;;;;;;;;;21.40;34.40;;;;;;498870;239;1047;-39
2022/04/08 03:20:07;;;;;;;;;;;21.40;34.40;;;;;;498443;239;1090;-39
2022/04/08 03:22:08;;;;;;;;;;;21.30;34.40;;;;;;498557;239;1350;-39
2022/04/08 03:24:10;;;;;;;;;;;21.40;34.40;;;;;;498575;239;1165;-39
2022/04/08 03:26:11;;;;;;;;;;;21.30;34.50;;;;;;498839;239;1107;-39
2022/04/08 03:28:13;;;;;;;;;;;21.40;34.40;;;;;;498916;239;1070;-39
2022/04/08 03:30:14;;;;;;;;;;;21.40;34.40;;;;;;498901;239;1286;-39
2022/04/08 03:32:15;;;;;;;;;;;21.40;34.40;;;;;;498863;239;2110;-39
2022/04/08 03:34:16;;;;;;;;;;;21.40;34.40;;;;;;498942;239;1048;-39
2022/04/08 03:36:18;;;;;;;;;;;21.30;34.30;;;;;;498317;239;1224;-39
2022/04/08 03:38:19;;;;;;;;;;;21.40;34.40;;;;;;498706;235;1261;-39
2022/04/08 03:40:21;;;;;;;;;;;21.40;34.40;;;;;;498910;239;1131;-39
2022/04/08 03:42:22;;;;;;;;;;;21.40;34.30;;;;;;498851;239;1156;-39
2022/04/08 03:44:23;;;;;;;;;;;21.40;34.30;;;;;;498949;239;1067;-39
2022/04/08 03:46:25;;;;;;;;;;;21.40;34.40;;;;;;498757;239;1311;-39
2022/04/08 03:48:26;;;;;;;;;;;21.40;34.40;;;;;;498930;239;1038;-39
2022/04/08 03:50:27;;;;;;;;;;;21.40;34.30;;;;;;498916;239;1012;-39
2022/04/08 03:52:32;;;;;;;;;;;21.40;34.30;;;;;;498347;239;2137;-39
2022/04/08 03:54:30;;;;;;;;;;;21.40;34.40;;;;;;498281;239;2171;-39
2022/04/08 03:56:31;;;;;;;;;;;21.40;34.40;;;;;;498825;238;1288;-39
2022/04/08 03:58:32;;;;;;;;;;;21.40;34.40;;;;;;498908;239;1052;-39
2022/04/08 04:00:34;;;;;;;;;;;21.40;34.40;;;;;;498440;239;1134;-39
2022/04/08 04:02:35;;;;;;;;;;;21.40;34.40;;;;;;498800;239;1214;-39
2022/04/08 04:04:36;;;;;;;;;;;21.30;34.40;;;;;;498492;239;1082;-39
2022/04/08 04:06:38;;;;;;;;;;;21.40;34.40;;;;;;498390;239;1700;-39
2022/04/08 04:08:39;;;;;;;;;;;21.40;34.40;;;;;;498758;239;1177;-39
2022/04/08 04:10:41;;;;;;;;;;;21.30;34.40;;;;;;498426;239;1049;-39
2022/04/08 04:12:42;;;;;;;;;;;21.40;34.50;;;;;;498371;239;2189;-39
2022/04/08 04:14:43;;;;;;;;;;;21.30;34.40;;;;;;498368;239;1227;-39
2022/04/08 04:16:45;;;;;;;;;;;21.40;34.50;;;;;;498345;239;1086;-39
2022/04/08 04:18:46;;;;;;;;;;;21.40;34.40;;;;;;498478;239;1458;-39
2022/04/08 04:20:47;;;;;;;;;;;21.30;34.40;;;;;;498841;239;1131;-39
2022/04/08 04:22:48;;;;;;;;;;;21.30;34.50;;;;;;498858;239;1213;-39
2022/04/08 04:24:50;;;;;;;;;;;21.30;34.40;;;;;;498269;239;1243;-39
2022/04/08 04:26:51;;;;;;;;;;;21.40;34.50;;;;;;498326;239;1260;-39
2022/04/08 04:28:52;;;;;;;;;;;21.30;34.50;;;;;;498832;239;1052;-39
2022/04/08 04:30:54;;;;;;;;;;;21.30;34.40;;;;;;498757;239;1682;-39
2022/04/08 04:32:56;;;;;;;;;;;21.30;34.40;;;;;;498358;239;2130;-39
2022/04/08 04:34:57;;;;;;;;;;;21.40;34.50;;;;;;498817;239;2445;-39
2022/04/08 04:36:58;;;;;;;;;;;21.40;34.50;;;;;;498398;239;1130;-39
2022/04/08 04:38:59;;;;;;;;;;;21.40;34.50;;;;;;498648;235;1277;-39
2022/04/08 04:41:01;;;;;;;;;;;21.40;34.40;;;;;;498690;239;1325;-39
2022/04/08 04:43:02;;;;;;;;;;;21.40;34.40;;;;;;498711;239;1070;-39
2022/04/08 04:45:03;;;;;;;;;;;21.40;34.30;;;;;;498724;239;1322;-39
2022/04/08 04:47:05;;;;;;;;;;;21.40;34.30;;;;;;498551;239;1313;-39
2022/04/08 04:49:06;;;;;;;;;;;21.40;34.40;;;;;;498506;239;1429;-39
2022/04/08 04:51:07;;;;;;;;;;;21.40;34.50;;;;;;498419;239;1070;-39
2022/04/08 04:53:09;;;;;;;;;;;21.40;34.40;;;;;;498258;239;2179;-39
2022/04/08 04:55:10;;;;;;;;;;;21.30;34.40;;;;;;498328;239;1184;-39
2022/04/08 04:57:11;;;;;;;;;;;21.30;34.40;;;;;;498137;239;1083;-39
2022/04/08 04:59:12;;;;;;;;;;;21.40;34.40;;;;;;498406;239;1145;-39
2022/04/08 05:01:14;;;;;;;;;;;21.40;34.40;;;;;;498201;239;1166;-39
2022/04/08 05:03:15;;;;;;;;;;;21.40;34.40;;;;;;498275;239;1158;-39
2022/04/08 05:05:16;;;;;;;;;;;21.40;34.50;;;;;;498703;239;1123;-39
2022/04/08 05:07:18;;;;;;;;;;;21.40;34.50;;;;;;498681;239;1220;-39
2022/04/08 05:09:19;;;;;;;;;;;21.40;34.50;;;;;;498194;239;1128;-39
2022/04/08 05:11:20;;;;;;;;;;;21.40;34.40;;;;;;498566;239;1125;-39
2022/04/08 05:13:22;;;;;;;;;;;21.40;34.50;;;;;;498242;239;2122;-39
2022/04/08 05:15:25;;;;;;;;;;;21.30;34.50;;;;;;498376;239;1266;-39
2022/04/08 05:17:26;;;;;;;;;;;21.30;34.50;;;;;;498607;239;1132;-39
2022/04/08 05:19:28;;;;;;;;;;;21.40;34.40;;;;;;498171;239;1091;-39
2022/04/08 05:21:30;;;;;;;;;;;21.40;34.50;;;;;;498372;239;1023;-39
2022/04/08 05:23:32;;;;;;;;;;;21.40;34.40;;;;;;498681;239;1009;-39
2022/04/08 05:25:32;;;;;;;;;;;21.40;34.40;;;;;;498134;239;2145;-39
2022/04/08 05:27:34;;;;;;;;;;;21.30;34.40;;;;;;498150;239;1175;-39
2022/04/08 05:29:35;;;;;;;;;;;21.40;34.40;;;;;;498587;239;1016;-39
2022/04/08 05:31:36;;;;;;;;;;;21.40;34.40;;;;;;498029;239;986;-39
2022/04/08 05:33:37;;;;;;;;;;;21.30;34.40;;;;;;498508;239;2122;-39
2022/04/08 05:35:39;;;;;;;;;;;21.40;34.50;;;;;;498618;239;1038;-39
2022/04/08 05:37:42;;;;;;;;;;;21.40;34.50;;;;;;498079;239;1481;-39
2022/04/08 05:39:41;;;;;;;;;;;21.40;34.40;;;;;;498002;235;2201;-39
2022/04/08 05:41:43;;;;;;;;;;;21.40;34.40;;;;;;498081;239;1172;-39
2022/04/08 05:43:45;;;;;;;;;;;21.50;34.40;;;;;;498071;239;1119;-39
2022/04/08 05:45:46;;;;;;;;;;;21.40;34.40;;;;;;498002;239;1099;-39
2022/04/08 05:47:47;;;;;;;;;;;21.40;34.40;;;;;;498031;239;1142;-39
2022/04/08 05:49:49;;;;;;;;;;;21.40;34.40;;;;;;498006;239;1076;-39
2022/04/08 05:51:50;;;;;;;;;;;21.40;34.50;;;;;;498414;239;1561;-39
2022/04/08 05:53:51;;;;;;;;;;;21.40;34.50;;;;;;498234;239;2188;-39
2022/04/08 05:55:53;;;;;;;;;;;21.40;34.50;;;;;;497969;239;1168;-39
2022/04/08 05:57:56;;;;;;;;;;;21.40;34.50;;;;;;498053;239;1545;-39
2022/04/08 05:59:55;;;;;;;;;;;21.40;34.50;;;;;;497875;239;1926;-39
2022/04/08 06:01:57;;;;;;;;;;;21.40;34.50;;;;;;498018;239;1301;-39
2022/04/08 06:03:58;;;;;;;;;;;21.40;34.50;;;;;;498004;239;1200;-39
2022/04/08 06:05:59;;;;;;;;;;;21.40;34.50;;;;;;497909;239;1397;-39
2022/04/08 06:08:01;;;;;;;;;;;21.40;34.40;;;;;;498140;239;1109;-39
2022/04/08 06:10:02;;;;;;;;;;;21.30;34.40;;;;;;498079;239;1891;-39
2022/04/08 06:12:03;;;;;;;;;;;21.40;34.50;;;;;;497831;239;1367;-39
2022/04/08 06:14:05;;;;;;;;;;;21.40;34.50;;;;;;497946;239;2102;-39
2022/04/08 06:16:06;;;;;;;;;;;21.40;34.50;;;;;;497854;239;1396;-39
2022/04/08 06:18:09;;;;;;;;;;;21.40;34.50;;;;;;497943;239;1150;-39
2022/04/08 06:20:10;;;;;;;;;;;21.40;34.50;;;;;;497862;239;1789;-39
2022/04/08 06:22:11;;;;;;;;;;;21.40;34.50;;;;;;498013;239;1174;-39
2022/04/08 06:24:13;;;;;;;;;;;21.40;34.50;;;;;;497929;239;1050;-39
2022/04/08 06:26:15;;;;;;;;;;;21.40;34.40;;;;;;497697;239;1272;-39
2022/04/08 06:28:17;;;;;;;;;;;21.40;34.40;;;;;;497771;239;1066;-39
2022/04/08 06:30:18;;;;;;;;;;;21.40;34.40;;;;;;498074;239;1052;-39
2022/04/08 06:32:20;;;;;;;;;;;21.40;34.40;;;;;;497744;239;1282;-39
2022/04/08 06:34:20;;;;;;;;;;;21.40;34.50;;;;;;497887;239;2184;-39
2022/04/08 06:36:22;;;;;;;;;;;21.40;34.40;;;;;;497824;239;1659;-39
2022/04/08 06:38:23;;;;;;;;;;;21.50;34.50;;;;;;498058;239;1044;-39
2022/04/08 06:40:25;;;;;;;;;;;21.40;34.40;;;;;;497833;239;1170;-39
2022/04/08 06:42:26;;;;;;;;;;;21.40;34.50;;;;;;497680;239;1295;-39
2022/04/08 06:44:27;;;;;;;;;;;21.40;34.50;;;;;;497761;239;1050;-39
2022/04/08 06:46:28;;;;;;;;;;;21.40;34.50;;;;;;497868;239;1152;-39
2022/04/08 06:48:30;;;;;;;;;;;21.40;34.60;;;;;;497934;239;1034;-39
2022/04/08 06:50:33;;;;;;;;;;;21.40;34.60;;;;;;497896;239;1358;-39
2022/04/08 06:52:33;;;;;;;;;;;21.40;34.50;;;;;;497767;239;1674;-39
2022/04/08 06:54:34;;;;;;;;;;;21.40;34.50;;;;;;497926;239;2106;-39
2022/04/08 06:56:35;;;;;;;;;;;21.40;34.50;;;;;;497900;239;1220;-39
2022/04/08 06:58:39;;;;;;;;;;;21.40;34.60;;;;;;497696;239;1100;-39
2022/04/08 07:00:39;;;;;;;;;;;21.40;34.60;;;;;;497620;239;2038;-39
2022/04/08 07:02:40;;;;;;;;;;;21.40;34.60;;;;;;497605;239;1470;-39
2022/04/08 07:04:41;;;;;;;;;;;21.30;34.70;;;;;;497708;239;1082;-39
2022/04/08 07:06:43;;;;;;;;;;;21.30;34.60;;;;;;497662;239;1245;-39
2022/04/08 07:08:44;;;;;;;;;;;21.40;34.70;;;;;;497624;239;1059;-39
2022/04/08 07:10:45;;;;;;;;;;;21.40;34.60;;;;;;497545;239;1380;-39
2022/04/08 07:12:47;;;;;;;;;;;21.40;34.60;;;;;;497693;239;1098;-39
2022/04/08 07:14:48;;;;;;;;;;;21.40;34.60;;;;;;497742;239;1111;-39
2022/04/08 07:16:49;;;;;;;;;;;21.30;34.60;;;;;;497821;239;1554;-39
2022/04/08 07:18:51;;;;;;;;;;;21.30;34.70;;;;;;497928;239;1124;-39
2022/04/08 07:20:52;;;;;;;;;;;21.40;34.70;;;;;;497703;239;1504;-39
2022/04/08 07:22:54;;;;;;;;;;;21.40;34.60;;;;;;497663;239;1029;-39
2022/04/08 07:24:55;;;;;;;;;;;21.40;34.60;;;;;;497691;239;2065;-39
2022/04/08 07:26:56;;;;;;;;;;;21.30;34.50;;;;;;497547;239;1266;-39
2022/04/08 07:28:57;;;;;;;;;;;21.40;34.60;;;;;;497566;239;1078;-39
2022/04/08 07:30:58;;;;;;;;;;;21.30;34.60;;;;;;497690;239;1484;-39
2022/04/08 07:33:01;;;;;;;;;;;21.40;34.60;;;;;;497625;239;2181;-39
2022/04/08 07:35:03;;;;;;;;;;;21.40;34.50;;;;;;497622;239;2068;-39
2022/04/08 07:37:04;;;;;;;;;;;21.40;34.50;;;;;;497554;239;1424;-39
2022/04/08 07:39:06;;;;;;;;;;;21.40;34.50;;;;;;497918;239;1094;-39
2022/04/08 07:41:07;;;;;;;;;;;21.40;34.60;;;;;;497804;239;1150;-39
2022/04/08 07:43:08;;;;;;;;;;;21.40;34.60;;;;;;497687;239;1291;-39
2022/04/08 07:45:10;;;;;;;;;;;21.40;34.60;;;;;;497459;239;1164;-39
2022/04/08 07:47:11;;;;;;;;;;;21.40;34.60;;;;;;498158;239;1106;-39
2022/04/08 07:49:13;;;;;;;;;;;21.40;34.60;;;;;;497744;239;1087;-39
2022/04/08 07:51:14;;;;;;;;;;;21.40;34.70;;;;;;497686;239;1245;-39
2022/04/08 07:53:15;;;;;;;;;;;21.40;34.70;;;;;;497719;239;2181;-39
2022/04/08 07:55:20;;;;;;;;;;;21.40;34.60;;;;;;497864;239;1498;-39
2022/04/08 07:57:19;;;;;;;;;;;21.30;34.60;;;;;;497357;239;1310;-39
2022/04/08 07:59:20;;;;;;;;;;;21.40;34.60;;;;;;497380;239;1074;-39
2022/04/08 08:01:21;;;;;;;;;;;21.40;34.60;;;;;;497364;239;1457;-39
2022/04/08 08:03:23;;;;;;;;;;;21.40;34.60;;;;;;497576;239;1157;-39
2022/04/08 08:05:24;;;;;;;;;;;21.40;34.50;;;;;;497888;239;1095;-39
2022/04/08 08:07:25;;;;;;;;;;;21.40;34.50;;;;;;497658;239;1097;-39
2022/04/08 08:09:27;;;;;;;;;;;21.40;34.50;;;;;;497736;239;1190;-39
2022/04/08 08:11:28;;;;;;;;;;;21.40;34.60;;;;;;497600;237;1187;-39
2022/04/08 08:13:29;;;;;;;;;;;21.40;34.60;;;;;;497567;239;2138;-39
2022/04/08 08:15:31;;;;;;;;;;;21.40;34.50;;;;;;497626;239;1033;-39
2022/04/08 08:17:32;;;;;;;;;;;21.40;34.60;;;;;;497461;239;1223;-39
2022/04/08 08:19:33;;;;;;;;;;;21.40;34.60;;;;;;497682;239;1021;-39
2022/04/08 08:21:35;;;;;;;;;;;21.40;34.70;;;;;;497648;239;1313;-39
2022/04/08 08:23:36;;;;;;;;;;;21.40;34.50;;;;;;497678;239;1076;-39
2022/04/08 08:25:37;;;;;;;;;;;21.40;34.50;;;;;;497508;239;1245;-39
2022/04/08 08:27:39;;;;;;;;;;;21.40;34.50;;;;;;497822;239;1201;-39
2022/04/08 08:29:40;;;;;;;;;;;21.40;34.60;;;;;;498255;239;780;-39
2022/04/08 08:31:42;;;;;;;;;;;21.40;34.60;;;;;;498087;239;1155;-39
2022/04/08 08:33:44;;;;;;;;;;;21.40;34.60;;;;;;497902;239;2168;-39
2022/04/08 08:35:46;;;;;;;;;;;21.40;34.60;;;;;;497711;239;1173;-39
2022/04/08 08:37:46;;;;;;;;;;;21.40;34.60;;;;;;497808;239;1678;-39
2022/04/08 08:39:48;;;;;;;;;;;21.40;34.60;;;;;;497635;239;1034;-39
2022/04/08 08:41:49;;;;;;;;;;;21.40;34.70;;;;;;497646;239;1180;-39
2022/04/08 08:43:54;;;;;;;;;;;21.40;34.80;;;;;;497550;239;1217;-39
2022/04/08 08:45:52;;;;;;;;;;;21.40;34.70;;;;;;497360;239;2025;-39
2022/04/08 08:47:53;;;;;;;;;;;21.30;34.70;;;;;;497615;239;1076;-39
2022/04/08 08:49:55;;;;;;;;;;;21.40;34.70;;;;;;497597;239;1073;-39
2022/04/08 08:51:56;;;;;;;;;;;21.40;34.70;;;;;;497391;239;1052;-39
2022/04/08 08:53:57;;;;;;;;;;;21.40;34.70;;;;;;497672;239;2174;-39
2022/04/08 08:55:59;;;;;;;;;;;21.40;34.70;;;;;;497825;239;1134;-39
2022/04/08 08:58:00;;;;;;;;;;;21.40;34.70;;;;;;497691;239;1205;-39
2022/04/08 09:00:01;;;;;;;;;;;21.40;34.70;;;;;;497715;239;1211;-39
2022/04/08 09:02:02;;;;;;;;;;;21.40;34.70;;;;;;497852;239;1068;-39
2022/04/08 09:04:05;;;;;;;;;;;21.40;34.70;;;;;;497716;239;1042;-39
2022/04/08 09:06:06;;;;;;;;;;;21.40;34.70;;;;;;497768;239;1364;-39
2022/04/08 09:08:08;;;;;;;;;;;21.40;34.70;;;;;;497676;239;1210;-39
2022/04/08 09:10:09;;;;;;;;;;;21.40;34.70;;;;;;497751;239;1050;-39
2022/04/08 09:12:11;;;;;;;;;;;21.40;34.70;;;;;;497794;239;1236;-39
2022/04/08 09:14:12;;;;;;;;;;;21.40;34.70;;;;;;497851;239;2129;-39
2022/04/08 09:16:13;;;;;;;;;;;21.40;34.70;;;;;;497803;239;1321;-39
2022/04/08 09:18:15;;;;;;;;;;;21.40;34.70;;;;;;497635;239;1203;-39
2022/04/08 09:20:16;;;;;;;;;;;21.40;34.70;;;;;;497625;239;1324;-39
2022/04/08 09:22:17;;;;;;;;;;;21.40;34.70;;;;;;497614;239;1039;-39
2022/04/08 09:24:18;;;;;;;;;;;21.40;34.70;;;;;;497536;239;1053;-39
2022/04/08 09:26:20;;;;;;;;;;;21.40;34.70;;;;;;497563;239;1104;-39
2022/04/08 09:28:21;;;;;;;;;;;21.40;34.70;;;;;;497726;239;1179;-39
2022/04/08 09:30:23;;;;;;;;;;;21.40;34.80;;;;;;497667;239;1027;-39
2022/04/08 09:32:24;;;;;;;;;;;21.40;34.70;;;;;;497812;239;1073;-39
2022/04/08 09:34:26;;;;;;;;;;;21.40;34.70;;;;;;497521;239;2103;-39
2022/04/08 09:36:27;;;;;;;;;;;21.40;34.80;;;;;;497327;239;1374;-39
2022/04/08 09:38:30;;;;;;;;;;;21.40;34.80;;;;;;497584;239;1085;-39
2022/04/08 09:40:30;;;;;;;;;;;21.40;34.70;;;;;;497625;239;1792;-39
2022/04/08 09:42:31;;;;;;;;;;;21.40;34.80;;;;;;497517;239;1579;-39
2022/04/08 09:44:35;;;;;;;;;;;21.40;34.70;;;;;;497789;239;1074;-39
2022/04/08 09:46:34;;;;;;;;;;;21.40;34.70;;;;;;497484;239;2274;-39
2022/04/08 09:48:35;;;;;;;;;;;21.40;34.70;;;;;;497583;239;2104;-39
2022/04/08 09:50:37;;;;;;;;;;;21.40;34.70;;;;;;497518;239;1140;-39
2022/04/08 09:52:38;;;;;;;;;;;21.40;34.80;;;;;;497449;239;1168;-39
2022/04/08 09:54:39;;;;;;;;;;;21.40;34.80;;;;;;497738;239;2186;-39
2022/04/08 09:56:40;;;;;;;;;;;21.40;34.80;;;;;;497659;239;1267;-39
2022/04/08 09:58:42;;;;;;;;;;;21.40;34.70;;;;;;497656;239;1187;-39
2022/04/08 10:00:43;;;;;;;;;;;21.40;34.70;;;;;;497800;239;948;-39
2022/04/08 10:02:44;;;;;;;;;;;21.40;34.70;;;;;;497662;239;1239;-39
2022/04/08 10:04:46;;;;;;;;;;;21.40;34.70;;;;;;498026;239;1078;-39
2022/04/08 10:06:47;;;;;;;;;;;21.40;34.80;;;;;;497867;239;1315;-39
2022/04/08 10:08:48;;;;;;;;;;;21.40;34.80;;;;;;497767;239;1093;-39
2022/04/08 10:10:51;;;;;;;;;;;21.40;34.80;;;;;;497731;239;1466;-39
2022/04/08 10:12:51;;;;;;;;;;;21.40;34.80;;;;;;497575;239;1991;-39
2022/04/08 10:14:52;;;;;;;;;;;21.40;34.80;;;;;;497682;239;2172;-39
2022/04/08 10:16:53;;;;;;;;;;;21.40;34.80;;;;;;497749;239;1213;-39
2022/04/08 10:18:55;;;;;;;;;;;21.30;34.80;;;;;;497576;239;1126;-39
2022/04/08 10:20:56;;;;;;;;;;;21.40;34.90;;;;;;497473;239;1324;-39
2022/04/08 10:22:57;;;;;;;;;;;21.30;34.90;;;;;;497487;239;1109;-39
2022/04/08 10:24:59;;;;;;;;;;;21.40;34.80;;;;;;497666;239;1058;-39
2022/04/08 10:27:01;;;;;;;;;;;21.40;34.80;;;;;;496755;239;1252;-39
2022/04/08 10:29:02;;;;;;;;;;;21.40;34.80;;;;;;497678;239;1191;-39
2022/04/08 10:31:03;;;;;;;;;;;21.40;34.90;;;;;;497752;239;1488;-39
2022/04/08 10:33:05;;;;;;;;;;;21.40;34.80;;;;;;498125;239;1143;-39
2022/04/08 10:35:06;;;;;;;;;;;21.30;34.80;;;;;;497611;239;2189;-39
2022/04/08 10:37:07;;;;;;;;;;;21.40;34.80;;;;;;497551;239;1311;-39
2022/04/08 10:39:09;;;;;;;;;;;21.40;34.80;;;;;;498076;239;1231;-39
2022/04/08 10:41:11;;;;;;;;;;;21.40;34.80;;;;;;497636;239;1125;-39
2022/04/08 10:43:13;;;;;;;;;;;21.40;34.80;;;;;;497902;239;1151;-39
2022/04/08 10:45:13;;;;;;;;;;;21.40;34.80;;;;;;497749;239;1928;-39
2022/04/08 10:47:14;;;;;;;;;;;21.40;34.80;;;;;;497928;239;1085;-39
2022/04/08 10:49:16;;;;;;;;;;;21.40;34.90;;;;;;497860;239;1113;-39
2022/04/08 10:51:18;;;;;;;;;;;21.40;34.80;;;;;;497699;239;1248;-39
2022/04/08 10:53:19;;;;;;;;;;;21.40;34.80;;;;;;497733;239;1680;-39
2022/04/08 10:55:20;;;;;;;;;;;21.40;34.70;;;;;;497789;239;2130;-39
2022/04/08 10:57:21;;;;;;;;;;;21.40;34.80;;;;;;497561;239;1106;-39
2022/04/08 10:59:23;;;;;;;;;;;21.40;34.80;;;;;;497671;239;1203;-39
2022/04/08 11:01:24;;;;;;;;;;;21.40;34.90;;;;;;497757;239;1163;-39
2022/04/08 11:03:25;;;;;;;;;;;21.40;34.90;;;;;;497819;239;1057;-39
2022/04/08 11:05:27;;;;;;;;;;;21.40;34.80;;;;;;497798;239;1062;-39
2022/04/08 11:07:28;;;;;;;;;;;21.40;34.90;;;;;;497748;239;1290;-39
2022/04/08 11:09:30;;;;;;;;;;;21.40;34.90;;;;;;497637;239;1042;-39
2022/04/08 11:11:31;;;;;;;;;;;21.40;34.90;;;;;;497510;239;1476;-39
2022/04/08 11:13:32;;;;;;;;;;;21.40;34.90;;;;;;497528;239;1112;-39
2022/04/08 11:15:34;;;;;;;;;;;21.40;34.90;;;;;;497528;239;2168;-39
2022/04/08 11:17:35;;;;;;;;;;;21.40;35.00;;;;;;497720;239;1201;-39
2022/04/08 11:19:36;;;;;;;;;;;21.40;34.90;;;;;;497621;239;1128;-39
2022/04/08 11:21:37;;;;;;;;;;;21.40;35.00;;;;;;497610;239;1171;-39
2022/04/08 11:23:39;;;;;;;;;;;21.40;34.90;;;;;;497650;239;1042;-39
2022/04/08 11:25:40;;;;;;;;;;;21.40;34.90;;;;;;497646;239;1328;-39
2022/04/08 11:27:42;;;;;;;;;;;21.40;34.90;;;;;;497706;239;1128;-39
2022/04/08 11:29:43;;;;;;;;;;;21.40;35.00;;;;;;497750;239;1191;-39
2022/04/08 11:31:44;;;;;;;;;;;21.40;35.00;;;;;;497649;239;1544;-39
2022/04/08 11:33:46;;;;;;;;;;;21.40;35.00;;;;;;497792;239;1092;-39
2022/04/08 11:35:47;;;;;;;;;;;21.40;34.90;;;;;;497829;239;2189;-39
2022/04/08 11:37:48;;;;;;;;;;;21.40;35.10;;;;;;498138;239;1047;-39
2022/04/08 11:39:49;;;;;;;;;;;21.40;35.00;;;;;;497766;239;1299;-39
2022/04/08 11:41:51;;;;;;;;;;;21.40;35.10;;;;;;497647;236;1461;-39
2022/04/08 11:43:52;;;;;;;;;;;21.40;35.00;;;;;;497751;239;1133;-39
2022/04/08 11:45:53;;;;;;;;;;;21.40;35.00;;;;;;497705;239;1148;-39
2022/04/08 11:47:55;;;;;;;;;;;21.40;35.10;;;;;;498219;239;1424;-39
2022/04/08 11:49:56;;;;;;;;;;;21.40;35.10;;;;;;497713;239;1103;-39
2022/04/08 11:51:57;;;;;;;;;;;21.40;35.10;;;;;;497519;239;1350;-39
2022/04/08 11:53:59;;;;;;;;;;;21.40;35.10;;;;;;498234;239;1046;-39
2022/04/08 11:56:00;;;;;;;;;;;21.40;35.20;;;;;;497845;239;2181;-39
2022/04/08 11:58:01;;;;;;;;;;;21.40;35.20;;;;;;497820;239;1477;-39